Whitewater, Colorado
Current Conditions -  °F | °C
As of 5:53 AM on Sunday 23 Nov 2014 (Local Time) from KGJT Reporting Station
Broken Clouds Broken Clouds  
Wind Chill: 30°   Ceiling: 6000
Heat Index: 30°   Visibility: 10mi
Dew Point: 30°   Wind: 3mph
Humidity: 100%   Direction: 70°ENE
Pressure: 29.87"   Gusts: NA
Location:  38.99°N, 108.45°W
Report Text: KGJT 231253Z 07003KT 10SM BKN060 M01/M01 A2987 RMK AO2 SLP123 T10111011
Loading
Personal Weather Stations






























Interactive Weather Map New forecast layout! Learn more

10-Day Weather Forecast

Advertisements
Track Severe Weather on mobile